createdAt,value
2018-05-09T00:01:44.322Z,1004.11
2018-05-09T00:02:44.626Z,1004.13
2018-05-09T00:03:44.406Z,1004.12
2018-05-09T00:05:44.473Z,1004.15
2018-05-09T00:06:44.224Z,1004.10
2018-05-09T00:07:44.214Z,1004.12
2018-05-09T00:08:44.145Z,1004.09
2018-05-09T00:10:44.117Z,1004.12
2018-05-09T00:11:44.212Z,1004.13
2018-05-09T00:12:44.437Z,1004.13
2018-05-09T00:14:44.059Z,1004.14
2018-05-09T00:15:44.188Z,1004.15
2018-05-09T00:16:44.323Z,1004.12
2018-05-09T00:17:44.077Z,1004.14
2018-05-09T00:18:44.060Z,1004.16
2018-05-09T00:19:43.992Z,1004.19
2018-05-09T00:20:43.967Z,1004.19
2018-05-09T00:21:43.958Z,1004.18
2018-05-09T00:22:43.948Z,1004.16
2018-05-09T00:23:44.275Z,1004.13
2018-05-09T00:24:44.081Z,1004.15
2018-05-09T00:25:44.201Z,1004.15
2018-05-09T00:26:44.090Z,1004.10
2018-05-09T00:27:44.003Z,1004.14
2018-05-09T00:29:44.476Z,1004.13
2018-05-09T00:30:44.603Z,1004.13
2018-05-09T00:31:43.886Z,1004.13
2018-05-09T00:32:43.798Z,1004.13
2018-05-09T00:33:43.781Z,1004.09
2018-05-09T00:34:43.784Z,1004.10
2018-05-09T00:35:43.767Z,1004.10
2018-05-09T00:36:44.159Z,1004.11
2018-05-09T00:37:43.977Z,1004.09
2018-05-09T00:38:43.708Z,1004.06
2018-05-09T00:39:43.707Z,1004.06
2018-05-09T00:40:43.768Z,1004.07
2018-05-09T00:41:43.747Z,1004.03
2018-05-09T00:42:43.991Z,1004.03
2018-05-09T00:43:43.768Z,1004.05
2018-05-09T00:44:43.750Z,1004.04
2018-05-09T00:45:43.740Z,1004.04
2018-05-09T00:46:43.698Z,1004.02
2018-05-09T00:47:43.668Z,1004.03
2018-05-09T00:48:43.880Z,1004.02
2018-05-09T00:49:43.598Z,1004.01
2018-05-09T00:52:43.645Z,1003.92
2018-05-09T00:53:43.500Z,1003.98
2018-05-09T00:54:43.873Z,1003.99
2018-05-09T00:55:43.615Z,1003.97
2018-05-09T00:56:43.604Z,1003.98
2018-05-09T00:57:43.573Z,1003.98
2018-05-09T00:58:43.493Z,1004.02
2018-05-09T00:59:43.408Z,1003.95
2018-05-09T01:00:43.695Z,1003.96
2018-05-09T01:01:43.379Z,1003.97
2018-05-09T01:03:43.393Z,1003.97
2018-05-09T01:04:43.584Z,1003.99
2018-05-09T01:05:43.401Z,1003.97
2018-05-09T01:06:43.605Z,1003.96
2018-05-09T01:07:43.292Z,1003.92
2018-05-09T01:10:43.496Z,1003.92
2018-05-09T01:12:43.515Z,1003.91
2018-05-09T01:13:43.301Z,1003.93
2018-05-09T01:14:43.280Z,1003.94
2018-05-09T01:16:43.300Z,1003.93
2018-05-09T01:17:43.379Z,1003.88
2018-05-09T01:18:43.480Z,1003.92
2018-05-09T01:19:43.903Z,1003.84
2018-05-09T01:20:43.156Z,1003.86
2018-05-09T01:21:43.168Z,1003.83
2018-05-09T01:22:43.200Z,1003.82
2018-05-09T01:23:43.184Z,1003.83
2018-05-09T01:25:43.463Z,1003.78
2018-05-09T01:27:43.002Z,1003.73
2018-05-09T01:28:43.056Z,1003.73
2018-05-09T01:29:43.088Z,1003.71
2018-05-09T01:32:43.260Z,1003.70
2018-05-09T01:33:42.891Z,1003.70
2018-05-09T01:34:42.966Z,1003.64
2018-05-09T01:35:42.969Z,1003.67
2018-05-09T01:36:43.098Z,1003.64
2018-05-09T01:38:43.128Z,1003.69
2018-05-09T01:39:42.901Z,1003.71
2018-05-09T01:40:42.986Z,1003.76
2018-05-09T01:41:42.857Z,1003.70
2018-05-09T01:42:42.877Z,1003.67
2018-05-09T01:43:42.910Z,1003.68
2018-05-09T01:44:42.733Z,1003.66
2018-05-09T01:45:43.189Z,1003.65
2018-05-09T01:47:42.756Z,1003.65
2018-05-09T01:48:42.792Z,1003.64
2018-05-09T01:49:42.781Z,1003.67
2018-05-09T01:50:42.762Z,1003.74
2018-05-09T01:51:42.649Z,1003.71
2018-05-09T01:52:42.959Z,1003.72
2018-05-09T01:53:42.602Z,1003.76
2018-05-09T01:54:42.583Z,1003.72
2018-05-09T01:55:42.684Z,1003.71
2018-05-09T01:56:42.601Z,1003.72
2018-05-09T01:57:42.873Z,1003.70
2018-05-09T01:58:42.530Z,1003.70
2018-05-09T01:59:42.882Z,1003.71
2018-05-09T02:00:42.500Z,1003.70
2018-05-09T02:01:42.478Z,1003.69
2018-05-09T02:02:42.461Z,1003.67
2018-05-09T02:03:42.494Z,1003.68
2018-05-09T02:04:42.628Z,1003.71
2018-05-09T02:05:42.465Z,1003.72
2018-05-09T02:06:42.714Z,1003.68
2018-05-09T02:07:42.378Z,1003.69
2018-05-09T02:08:42.356Z,1003.70
2018-05-09T02:09:42.423Z,1003.67
2018-05-09T02:10:42.464Z,1003.64
2018-05-09T02:11:42.468Z,1003.68
2018-05-09T02:12:42.791Z,1003.67
2018-05-09T02:13:42.367Z,1003.69
2018-05-09T02:14:42.359Z,1003.65
2018-05-09T02:15:42.359Z,1003.65
2018-05-09T02:16:42.289Z,1003.64
2018-05-09T02:17:42.335Z,1003.64
2018-05-09T02:18:42.535Z,1003.62
2018-05-09T02:19:42.200Z,1003.62
2018-05-09T02:20:42.174Z,1003.64
2018-05-09T02:22:42.244Z,1003.67
2018-05-09T02:23:42.180Z,1003.66
2018-05-09T02:24:42.420Z,1003.67
2018-05-09T02:25:42.101Z,1003.66
2018-05-09T02:26:42.173Z,1003.62
2018-05-09T02:27:42.075Z,1003.64
2018-05-09T02:28:42.311Z,1003.62
2018-05-09T02:29:42.223Z,1003.61
2018-05-09T02:30:42.332Z,1003.57
2018-05-09T02:32:42.055Z,1003.61
2018-05-09T02:33:41.978Z,1003.60
2018-05-09T02:34:42.026Z,1003.60
2018-05-09T02:35:42.186Z,1003.56
2018-05-09T02:36:42.239Z,1003.59
2018-05-09T02:37:41.926Z,1003.57
2018-05-09T02:38:41.890Z,1003.59
2018-05-09T02:39:41.971Z,1003.60
2018-05-09T02:40:41.916Z,1003.59
2018-05-09T02:41:41.905Z,1003.58
2018-05-09T02:42:42.159Z,1003.60
2018-05-09T02:43:41.829Z,1003.60
2018-05-09T02:44:41.815Z,1003.54
2018-05-09T02:45:41.792Z,1003.56
2018-05-09T02:46:41.886Z,1003.56
2018-05-09T02:47:41.854Z,1003.52
2018-05-09T02:48:42.078Z,1003.53
2018-05-09T02:49:41.803Z,1003.52
2018-05-09T02:50:41.711Z,1003.50
2018-05-09T02:52:41.719Z,1003.44
2018-05-09T02:53:41.712Z,1003.43
2018-05-09T02:54:41.638Z,1003.46
2018-05-09T02:55:41.923Z,1003.41
2018-05-09T02:56:41.627Z,1003.43
2018-05-09T02:57:41.694Z,1003.43
2018-05-09T02:58:41.787Z,1003.44
2018-05-09T02:59:41.801Z,1003.44
2018-05-09T03:00:41.775Z,1003.45
2018-05-09T03:01:41.665Z,1003.49
2018-05-09T03:02:41.945Z,1003.50
2018-05-09T03:03:41.587Z,1003.49
2018-05-09T03:04:41.657Z,1003.52
2018-05-09T03:05:42.230Z,1003.56
2018-05-09T03:06:41.538Z,1003.57
2018-05-09T03:07:41.455Z,1003.56
2018-05-09T03:08:41.432Z,1003.54
2018-05-09T03:09:41.720Z,1003.54
2018-05-09T03:10:41.385Z,1003.51
2018-05-09T03:11:41.431Z,1003.56
2018-05-09T03:13:41.437Z,1003.56
2018-05-09T03:14:41.326Z,1003.57
2018-05-09T03:15:41.310Z,1003.55
2018-05-09T03:16:41.800Z,1003.49
2018-05-09T03:17:41.329Z,1003.55
2018-05-09T03:19:41.361Z,1003.48
2018-05-09T03:20:41.982Z,1003.51
2018-05-09T03:21:42.789Z,1003.54
2018-05-09T03:22:41.265Z,1003.52
2018-05-09T03:23:41.498Z,1003.51
2018-05-09T03:24:41.199Z,1003.49
2018-05-09T03:25:41.260Z,1003.53
2018-05-09T03:27:41.169Z,1003.59
2018-05-09T03:28:41.170Z,1003.55
2018-05-09T03:29:41.145Z,1003.56
2018-05-09T03:30:41.493Z,1003.53
2018-05-09T03:31:41.134Z,1003.55
2018-05-09T03:32:41.111Z,1003.54
2018-05-09T03:33:41.073Z,1003.58
2018-05-09T03:34:41.105Z,1003.59
2018-05-09T03:35:40.996Z,1003.63
2018-05-09T03:36:40.965Z,1003.60
2018-05-09T03:37:41.264Z,1003.61
2018-05-09T03:38:40.942Z,1003.61
2018-05-09T03:39:40.983Z,1003.65
2018-05-09T03:40:40.962Z,1003.62
2018-05-09T03:42:40.918Z,1003.63
2018-05-09T03:43:40.861Z,1003.61
2018-05-09T03:44:41.145Z,1003.66
2018-05-09T03:45:40.986Z,1003.61
2018-05-09T03:46:40.990Z,1003.62
2018-05-09T03:47:40.921Z,1003.63
2018-05-09T03:48:40.778Z,1003.65
2018-05-09T03:49:40.776Z,1003.65
2018-05-09T03:50:41.053Z,1003.63
2018-05-09T03:51:40.834Z,1003.64
2018-05-09T03:52:40.818Z,1003.61
2018-05-09T03:53:40.754Z,1003.60
2018-05-09T03:54:40.942Z,1003.59
2018-05-09T03:55:40.675Z,1003.63
2018-05-09T03:56:40.962Z,1003.63
2018-05-09T03:57:40.651Z,1003.59
2018-05-09T03:59:40.708Z,1003.59
2018-05-09T04:00:40.698Z,1003.60
2018-05-09T04:01:41.030Z,1003.62
2018-05-09T04:02:40.859Z,1003.61
2018-05-09T04:03:40.552Z,1003.61
2018-05-09T04:04:40.584Z,1003.60
2018-05-09T04:05:40.513Z,1003.61
2018-05-09T04:07:40.846Z,1003.61
2018-05-09T04:08:41.273Z,1003.58
2018-05-09T04:10:41.161Z,1003.58
2018-05-09T04:11:40.528Z,1003.56
2018-05-09T04:12:40.464Z,1003.60
2018-05-09T04:13:40.505Z,1003.60
2018-05-09T04:14:40.533Z,1003.60
2018-05-09T04:15:40.401Z,1003.56
2018-05-09T04:16:40.660Z,1003.59
2018-05-09T04:17:40.322Z,1003.58
2018-05-09T04:18:40.609Z,1003.59
2018-05-09T04:20:40.424Z,1003.57
2018-05-09T04:21:40.305Z,1003.58
2018-05-09T04:22:40.584Z,1003.57
2018-05-09T04:23:40.213Z,1003.58
2018-05-09T04:24:40.196Z,1003.57
2018-05-09T04:27:40.423Z,1003.58
2018-05-09T04:28:40.255Z,1003.53
2018-05-09T04:29:40.701Z,1003.57
2018-05-09T04:30:40.103Z,1003.50
2018-05-09T04:31:40.180Z,1003.51
2018-05-09T04:32:40.177Z,1003.48
2018-05-09T04:34:40.084Z,1003.49
2018-05-09T04:35:40.194Z,1003.46
2018-05-09T04:36:40.137Z,1003.53
2018-05-09T04:37:40.002Z,1003.52
2018-05-09T04:38:40.050Z,1003.53
2018-05-09T04:39:40.303Z,1003.55
2018-05-09T04:40:39.967Z,1003.55
2018-05-09T04:41:39.982Z,1003.56
2018-05-09T04:42:40.258Z,1003.54
2018-05-09T04:43:39.947Z,1003.55
2018-05-09T04:44:39.878Z,1003.58
2018-05-09T04:45:39.868Z,1003.60
2018-05-09T04:46:39.865Z,1003.58
2018-05-09T04:47:39.835Z,1003.59
2018-05-09T04:50:39.856Z,1003.59
2018-05-09T04:51:39.778Z,1003.57
2018-05-09T04:52:39.937Z,1003.58
2018-05-09T04:53:39.772Z,1003.58
2018-05-09T04:54:44.753Z,1003.59
2018-05-09T04:55:39.835Z,1003.59
2018-05-09T04:56:41.480Z,1003.60
2018-05-09T04:57:39.688Z,1003.63
2018-05-09T04:58:39.664Z,1003.60
2018-05-09T04:59:39.714Z,1003.65
2018-05-09T05:00:39.706Z,1003.63
2018-05-09T05:01:39.673Z,1003.67
2018-05-09T05:02:39.687Z,1003.71
2018-05-09T05:03:39.883Z,1003.68
2018-05-09T05:04:39.572Z,1003.69
2018-05-09T05:05:39.628Z,1003.69
2018-05-09T05:06:39.805Z,1003.71
2018-05-09T05:07:39.545Z,1003.70
2018-05-09T05:08:39.522Z,1003.69
2018-05-09T05:09:39.819Z,1003.72
2018-05-09T05:10:39.479Z,1003.68
2018-05-09T05:11:39.564Z,1003.70
2018-05-09T05:12:39.674Z,1003.69
2018-05-09T05:13:39.488Z,1003.66
2018-05-09T05:14:39.425Z,1003.69
2018-05-09T05:15:39.782Z,1003.67
2018-05-09T05:16:39.471Z,1003.67
2018-05-09T05:17:39.463Z,1003.65
2018-05-09T05:18:39.496Z,1003.68
2018-05-09T05:19:39.486Z,1003.71
2018-05-09T05:20:39.419Z,1003.74
2018-05-09T05:21:39.643Z,1003.70
2018-05-09T05:22:39.317Z,1003.70
2018-05-09T05:23:39.374Z,1003.68
2018-05-09T05:24:39.331Z,1003.70
2018-05-09T05:25:39.447Z,1003.71
2018-05-09T05:26:39.399Z,1003.72
2018-05-09T05:27:39.557Z,1003.72
2018-05-09T05:28:39.314Z,1003.74
2018-05-09T05:29:39.273Z,1003.77
2018-05-09T05:30:39.267Z,1003.76
2018-05-09T05:31:39.224Z,1003.76
2018-05-09T05:32:39.445Z,1003.76
2018-05-09T05:33:39.464Z,1003.79
2018-05-09T05:34:39.141Z,1003.79
2018-05-09T05:35:39.118Z,1003.77
2018-05-09T05:36:39.117Z,1003.80
2018-05-09T05:37:39.097Z,1003.77
2018-05-09T05:38:39.353Z,1003.80
2018-05-09T05:39:40.015Z,1003.80
2018-05-09T05:40:39.061Z,1003.77
2018-05-09T05:41:39.052Z,1003.78
2018-05-09T05:42:39.030Z,1003.77
2018-05-09T05:43:39.009Z,1003.77
2018-05-09T05:44:39.201Z,1003.75
2018-05-09T05:45:39.294Z,1003.77
2018-05-09T05:46:39.042Z,1003.79
2018-05-09T05:47:39.005Z,1003.80
2018-05-09T05:48:38.961Z,1003.85
2018-05-09T05:49:38.929Z,1003.86
2018-05-09T05:50:38.976Z,1003.83
2018-05-09T05:51:39.252Z,1003.86
2018-05-09T05:52:39.159Z,1003.85
2018-05-09T05:53:38.905Z,1003.84
2018-05-09T05:54:38.865Z,1003.87
2018-05-09T05:55:38.846Z,1003.89
2018-05-09T05:56:38.842Z,1003.85
2018-05-09T05:57:38.825Z,1003.85
2018-05-09T05:58:38.913Z,1003.90
2018-05-09T05:59:38.851Z,1003.86
2018-05-09T06:00:38.853Z,1003.87
2018-05-09T06:01:38.782Z,1003.89
2018-05-09T06:02:38.861Z,1003.88
2018-05-09T06:03:38.755Z,1003.89
2018-05-09T06:04:39.077Z,1003.88
2018-05-09T06:05:38.772Z,1003.92
2018-05-09T06:06:38.711Z,1003.96
2018-05-09T06:07:38.715Z,1003.90
2018-05-09T06:08:38.675Z,1003.92
2018-05-09T06:09:38.675Z,1003.93
2018-05-09T06:10:39.006Z,1003.95
2018-05-09T06:11:39.452Z,1003.95
2018-05-09T06:12:38.632Z,1003.95
2018-05-09T06:13:38.621Z,1003.97
2018-05-09T06:14:38.601Z,1003.98
2018-05-09T06:15:38.586Z,1003.98
2018-05-09T06:16:38.581Z,1004.04
2018-05-09T06:17:38.926Z,1004.00
2018-05-09T06:18:38.612Z,1004.04
2018-05-09T06:19:38.592Z,1004.02
2018-05-09T06:20:38.540Z,1004.06
2018-05-09T06:21:38.658Z,1004.04
2018-05-09T06:22:38.663Z,1004.06
2018-05-09T06:24:38.834Z,1004.08
2018-05-09T06:25:38.520Z,1004.11
2018-05-09T06:26:38.543Z,1004.09
2018-05-09T06:27:38.452Z,1004.09
2018-05-09T06:28:38.436Z,1004.08
2018-05-09T06:30:38.836Z,1004.05
2018-05-09T06:31:38.540Z,1004.13
2018-05-09T06:32:38.504Z,1004.11
2018-05-09T06:33:38.454Z,1004.15
2018-05-09T06:34:38.537Z,1004.11
2018-05-09T06:35:38.442Z,1004.11
2018-05-09T06:36:38.447Z,1004.16
2018-05-09T06:37:38.871Z,1004.16
2018-05-09T06:38:38.467Z,1004.19
2018-05-09T06:40:38.386Z,1004.25
2018-05-09T06:41:38.285Z,1004.27
2018-05-09T06:42:38.274Z,1004.27
2018-05-09T06:43:38.634Z,1004.27
2018-05-09T06:44:38.994Z,1004.33
2018-05-09T06:45:38.233Z,1004.34
2018-05-09T06:47:38.217Z,1004.33
2018-05-09T06:49:38.488Z,1004.33
2018-05-09T06:50:38.226Z,1004.32
2018-05-09T06:51:38.256Z,1004.28
2018-05-09T06:52:38.198Z,1004.28
2018-05-09T06:53:38.207Z,1004.26
2018-05-09T06:54:38.224Z,1004.30
2018-05-09T06:55:38.421Z,1004.30
2018-05-09T06:56:38.150Z,1004.31
2018-05-09T06:57:38.160Z,1004.31
2018-05-09T06:58:38.079Z,1004.28
2018-05-09T06:59:38.073Z,1004.31
2018-05-09T07:00:38.143Z,1004.28
2018-05-09T07:02:38.489Z,1004.24
2018-05-09T07:03:38.172Z,1004.29
2018-05-09T07:04:38.162Z,1004.29
2018-05-09T07:05:38.016Z,1004.28
2018-05-09T07:06:38.281Z,1004.25
2018-05-09T07:07:37.987Z,1004.25
2018-05-09T07:08:38.023Z,1004.30
2018-05-09T07:09:38.085Z,1004.33
2018-05-09T07:10:37.954Z,1004.32
2018-05-09T07:11:37.947Z,1004.29
2018-05-09T07:12:38.182Z,1004.30
2018-05-09T07:13:37.988Z,1004.31
2018-05-09T07:14:38.340Z,1004.33
2018-05-09T07:15:37.947Z,1004.38
2018-05-09T07:16:37.960Z,1004.32
2018-05-09T07:17:37.948Z,1004.36
2018-05-09T07:18:37.866Z,1004.36
2018-05-09T07:19:37.938Z,1004.54
2018-05-09T07:20:38.326Z,1005.09
2018-05-09T07:21:37.904Z,1005.28
2018-05-09T07:22:37.906Z,1005.36
2018-05-09T07:24:37.872Z,1005.68
2018-05-09T07:25:37.855Z,1005.77
2018-05-09T07:26:37.784Z,1005.98
2018-05-09T07:27:38.082Z,1006.01
2018-05-09T07:28:37.910Z,1006.05
2018-05-09T07:29:37.762Z,1006.08
2018-05-09T07:30:37.903Z,1006.10
2018-05-09T07:31:37.777Z,1006.12
2018-05-09T07:32:37.829Z,1006.14
2018-05-09T07:33:37.938Z,1006.21
2018-05-09T07:35:38.022Z,1006.17
2018-05-09T07:37:37.676Z,1006.28
2018-05-09T07:38:37.733Z,1006.29
2018-05-09T07:41:38.109Z,1006.41
2018-05-09T07:43:37.633Z,1006.54
2018-05-09T07:44:37.742Z,1006.57
2018-05-09T07:45:38.407Z,1006.62
2018-05-09T07:46:37.683Z,1006.61
2018-05-09T07:47:37.980Z,1006.66
2018-05-09T07:48:37.584Z,1006.67
2018-05-09T07:49:37.593Z,1006.70
2018-05-09T07:50:37.577Z,1006.77
2018-05-09T07:51:37.663Z,1006.75
2018-05-09T07:52:37.856Z,1006.83
2018-05-09T07:53:37.856Z,1006.86
2018-05-09T07:54:37.553Z,1006.89
2018-05-09T07:55:37.661Z,1006.95
2018-05-09T07:56:37.641Z,1007.04
2018-05-09T07:57:38.110Z,1007.14
2018-05-09T07:58:37.994Z,1007.16
2018-05-09T07:59:37.823Z,1007.29
2018-05-09T08:00:38.106Z,1007.66
2018-05-09T08:01:37.646Z,1008.83
2018-05-09T08:02:37.500Z,1010.78
2018-05-09T08:04:37.592Z,1012.60
2018-05-09T08:05:37.537Z,1011.79
2018-05-09T08:06:37.489Z,1011.70
2018-05-09T08:07:37.862Z,1012.27
2018-05-09T08:09:37.465Z,1013.55
2018-05-09T08:10:37.522Z,1013.75
2018-05-09T08:11:38.701Z,1013.84
2018-05-09T08:12:37.604Z,1013.65
2018-05-09T08:13:37.759Z,1013.60
2018-05-09T08:14:37.539Z,1013.30
2018-05-09T08:15:37.439Z,1013.30
2018-05-09T08:16:37.484Z,1013.29
2018-05-09T08:17:37.483Z,1013.05
2018-05-09T08:18:37.678Z,1013.02
2018-05-09T08:19:37.734Z,1012.92
2018-05-09T08:20:37.418Z,1012.78
2018-05-09T08:21:37.489Z,1012.72
2018-05-09T08:22:37.428Z,1012.44
2018-05-09T08:23:37.402Z,1012.46
2018-05-09T08:24:37.457Z,1012.78
2018-05-09T08:25:39.572Z,1012.59
2018-05-09T08:26:37.407Z,1012.32
2018-05-09T08:27:37.470Z,1012.35
2018-05-09T08:28:37.474Z,1012.47
2018-05-09T08:29:37.393Z,1012.28
2018-05-09T08:30:37.392Z,1011.98
2018-05-09T08:31:37.730Z,1011.78
2018-05-09T08:32:37.437Z,1011.38
2018-05-09T08:34:37.481Z,1011.05
2018-05-09T08:35:37.376Z,1011.25
2018-05-09T08:36:37.403Z,1011.03
2018-05-09T08:37:37.480Z,1010.49
2018-05-09T08:38:37.824Z,1010.32
2018-05-09T08:39:37.524Z,1010.30
2018-05-09T08:40:37.512Z,1010.18
2018-05-09T08:41:37.437Z,1009.88
2018-05-09T08:42:37.366Z,1009.25
2018-05-09T08:43:37.468Z,1008.82
2018-05-09T08:44:37.654Z,1008.57
2018-05-09T08:45:37.668Z,1008.57
2018-05-09T08:46:37.466Z,1008.36
2018-05-09T08:47:37.458Z,1008.10
2018-05-09T08:48:37.460Z,1007.69
2018-05-09T08:50:37.661Z,1007.04
2018-05-09T08:51:37.417Z,1007.16
2018-05-09T08:52:37.497Z,1007.18
2018-05-09T08:53:37.354Z,1006.99
2018-05-09T08:54:37.351Z,1006.77
2018-05-09T08:55:37.344Z,1006.70
2018-05-09T08:56:37.655Z,1006.56
2018-05-09T08:57:37.676Z,1006.44
2018-05-09T08:58:37.420Z,1006.29
2018-05-09T08:59:37.343Z,1006.19
2018-05-09T09:00:37.423Z,1006.16
2018-05-09T09:01:37.425Z,1006.02
2018-05-09T09:02:37.647Z,1005.92
2018-05-09T09:03:37.529Z,1005.86
2018-05-09T09:04:37.445Z,1005.81
2018-05-09T09:05:37.350Z,1005.74
2018-05-09T09:06:37.348Z,1005.71
2018-05-09T09:07:37.342Z,1005.69
2018-05-09T09:08:37.647Z,1005.64
2018-05-09T09:09:38.594Z,1005.61
2018-05-09T09:10:37.391Z,1005.62
2018-05-09T09:11:37.345Z,1005.59
2018-05-09T09:12:37.353Z,1005.57
2018-05-09T09:14:37.776Z,1005.55
2018-05-09T09:15:37.493Z,1005.63
2018-05-09T09:16:37.481Z,1005.64
2018-05-09T09:17:37.581Z,1005.61
2018-05-09T09:18:37.398Z,1005.57
2018-05-09T09:19:37.350Z,1005.57
2018-05-09T09:20:37.854Z,1005.57
2018-05-09T09:21:37.395Z,1005.55
2018-05-09T09:22:37.398Z,1005.63
2018-05-09T09:23:37.411Z,1005.64
2018-05-09T09:24:37.359Z,1005.62
2018-05-09T09:25:37.385Z,1005.60
2018-05-09T09:26:37.351Z,1005.57
2018-05-09T09:27:37.706Z,1005.55
2018-05-09T09:28:37.412Z,1005.61
2018-05-09T09:29:37.463Z,1005.62
2018-05-09T09:30:37.361Z,1005.60
2018-05-09T09:31:37.361Z,1005.63
2018-05-09T09:32:37.374Z,1005.66
2018-05-09T09:33:37.614Z,1005.61
2018-05-09T09:34:37.664Z,1005.60
2018-05-09T09:35:37.360Z,1005.55
2018-05-09T09:36:37.369Z,1005.55
2018-05-09T09:37:37.377Z,1005.49
2018-05-09T09:38:37.461Z,1005.49
2018-05-09T09:39:37.429Z,1005.49
2018-05-09T09:40:37.729Z,1005.45
2018-05-09T09:41:37.379Z,1005.36
2018-05-09T09:42:37.379Z,1005.32
2018-05-09T09:43:37.378Z,1005.29
2018-05-09T09:44:37.410Z,1005.24
2018-05-09T09:46:39.418Z,1005.27
2018-05-09T09:47:38.256Z,1005.16
2018-05-09T09:48:37.386Z,1005.11
2018-05-09T09:49:37.418Z,1005.13
2018-05-09T09:50:37.432Z,1005.11
2018-05-09T09:51:38.900Z,1005.06
2018-05-09T09:52:37.849Z,1005.15
2018-05-09T09:53:38.376Z,1005.19
2018-05-09T09:54:37.533Z,1005.09
2018-05-09T09:55:37.503Z,1005.09
2018-05-09T09:56:37.513Z,1005.13
2018-05-09T09:57:38.923Z,1005.04
2018-05-09T09:58:37.733Z,1004.98
2018-05-09T09:59:37.632Z,1005.12
2018-05-09T10:00:37.449Z,1005.07
2018-05-09T10:01:37.528Z,1005.02
2018-05-09T10:02:37.424Z,1005.11
2018-05-09T10:03:37.485Z,1005.07
2018-05-09T10:04:37.584Z,1005.01
2018-05-09T10:05:37.738Z,1005.08
2018-05-09T10:06:37.431Z,1005.10
2018-05-09T10:07:37.534Z,1005.07
2018-05-09T10:08:37.998Z,1005.01
2018-05-09T10:09:37.490Z,1004.97
2018-05-09T10:11:37.807Z,1005.00
2018-05-09T10:12:37.460Z,1004.88
2018-05-09T10:13:37.449Z,1004.88
2018-05-09T10:14:37.466Z,1004.90
2018-05-09T10:15:37.623Z,1004.90
2018-05-09T10:17:37.838Z,1004.89
2018-05-09T10:18:37.475Z,1004.90
2018-05-09T10:19:37.608Z,1004.91
2018-05-09T10:20:37.849Z,1004.88
2018-05-09T10:21:40.090Z,1004.85
2018-05-09T10:22:37.479Z,1004.79
2018-05-09T10:23:37.851Z,1004.76
2018-05-09T10:24:37.512Z,1004.79
2018-05-09T10:25:37.557Z,1004.79
2018-05-09T10:26:37.493Z,1004.77
2018-05-09T10:27:37.563Z,1004.83
2018-05-09T10:28:37.703Z,1004.90
2018-05-09T10:29:37.506Z,1004.86
2018-05-09T10:30:37.512Z,1004.84
2018-05-09T10:31:37.614Z,1004.79
2018-05-09T10:32:37.526Z,1004.78
2018-05-09T10:34:37.869Z,1004.78
2018-05-09T10:35:37.657Z,1004.79
2018-05-09T10:36:37.658Z,1004.80
2018-05-09T10:37:37.544Z,1004.75
2018-05-09T10:38:37.612Z,1004.67
2018-05-09T10:39:37.611Z,1004.70
2018-05-09T10:40:37.865Z,1004.71
2018-05-09T10:41:37.595Z,1004.73
2018-05-09T10:42:37.597Z,1004.70
2018-05-09T10:43:37.609Z,1004.73
2018-05-09T10:44:37.573Z,1004.71
2018-05-09T10:45:37.567Z,1004.69
2018-05-09T10:46:37.874Z,1004.67
2018-05-09T10:47:37.659Z,1004.71
2018-05-09T10:48:37.676Z,1004.75
2018-05-09T10:49:37.632Z,1004.70
2018-05-09T10:50:37.598Z,1004.74
2018-05-09T10:51:37.657Z,1004.69
2018-05-09T10:52:37.905Z,1004.70
2018-05-09T10:53:37.611Z,1004.65
2018-05-09T10:55:37.684Z,1004.47
2018-05-09T10:56:37.736Z,1004.46
2018-05-09T10:57:37.690Z,1004.27
2018-05-09T10:59:37.951Z,1004.21
2018-05-09T11:00:37.659Z,1004.14
2018-05-09T11:02:40.850Z,1004.09
2018-05-09T11:03:37.646Z,1004.05
2018-05-09T11:04:37.666Z,1004.04
2018-05-09T11:05:37.951Z,1004.01
2018-05-09T11:06:37.659Z,1003.99
2018-05-09T11:07:37.659Z,1004.00
2018-05-09T11:08:38.959Z,1003.96
2018-05-09T11:09:37.759Z,1003.99
2018-05-09T11:10:37.863Z,1003.97
2018-05-09T11:11:37.976Z,1004.01
2018-05-09T11:12:37.677Z,1003.97
2018-05-09T11:13:37.696Z,1003.95
2018-05-09T11:14:37.782Z,1003.88
2018-05-09T11:15:37.961Z,1003.86
2018-05-09T11:16:37.698Z,1003.92
2018-05-09T11:17:38.051Z,1003.83
2018-05-09T11:18:37.731Z,1003.88
2018-05-09T11:19:37.712Z,1003.88
2018-05-09T11:20:37.715Z,1003.89
2018-05-09T11:21:37.828Z,1003.84
2018-05-09T11:22:37.986Z,1003.84
2018-05-09T11:23:38.039Z,1003.83
2018-05-09T11:24:37.752Z,1003.80
2018-05-09T11:25:37.733Z,1003.78
2018-05-09T11:26:37.733Z,1003.75
2018-05-09T11:27:37.793Z,1003.75
2018-05-09T11:28:37.854Z,1003.76
2018-05-09T11:29:38.047Z,1003.71
2018-05-09T11:30:37.769Z,1003.72
2018-05-09T11:31:37.754Z,1003.64
2018-05-09T11:32:37.761Z,1003.64
2018-05-09T11:33:37.867Z,1003.70
2018-05-09T11:34:40.647Z,1003.66
2018-05-09T11:35:38.095Z,1003.66
2018-05-09T11:36:37.789Z,1003.56
2018-05-09T11:38:37.813Z,1003.53
2018-05-09T11:39:37.810Z,1003.54
2018-05-09T11:40:37.906Z,1003.58
2018-05-09T11:42:38.285Z,1003.54
2018-05-09T11:43:37.863Z,1003.48
2018-05-09T11:44:37.858Z,1003.51
2018-05-09T11:45:37.837Z,1003.45
2018-05-09T11:46:38.084Z,1003.45
2018-05-09T11:47:38.133Z,1003.43
2018-05-09T11:48:37.842Z,1003.42
2018-05-09T11:49:37.878Z,1003.44
2018-05-09T11:51:38.236Z,1003.36
2018-05-09T11:52:38.016Z,1003.42
2018-05-09T11:53:38.218Z,1003.45
2018-05-09T11:54:37.872Z,1003.45
2018-05-09T11:55:38.238Z,1003.41
2018-05-09T11:56:39.180Z,1003.38
2018-05-09T11:57:37.906Z,1003.42
2018-05-09T11:58:38.093Z,1003.35
2018-05-09T11:59:38.400Z,1003.33
2018-05-09T12:00:39.578Z,1003.30
2018-05-09T12:02:40.940Z,1003.33
2018-05-09T12:03:38.130Z,1003.30
2018-05-09T12:04:38.067Z,1003.29
2018-05-09T12:05:38.253Z,1003.27
2018-05-09T12:06:38.241Z,1003.31
2018-05-09T12:07:37.942Z,1003.25
2018-05-09T12:09:38.143Z,1003.29
2018-05-09T12:10:38.087Z,1003.30
2018-05-09T12:11:38.264Z,1003.25
2018-05-09T12:12:38.081Z,1003.33
2018-05-09T12:13:38.185Z,1003.28
2018-05-09T12:14:38.596Z,1003.29
2018-05-09T12:15:37.970Z,1003.25
2018-05-09T12:16:37.979Z,1003.23
2018-05-09T12:17:38.282Z,1003.32
2018-05-09T12:18:37.996Z,1003.28
2018-05-09T12:19:38.044Z,1003.32
2018-05-09T12:20:38.100Z,1003.22
2018-05-09T12:21:38.012Z,1003.27
2018-05-09T12:22:38.145Z,1003.30
2018-05-09T12:23:38.320Z,1003.25
2018-05-09T12:24:38.232Z,1002.94
2018-05-09T12:25:38.080Z,1002.71
2018-05-09T12:26:38.632Z,1003.19
2018-05-09T12:27:38.040Z,1003.19
2018-05-09T12:28:38.106Z,1003.14
2018-05-09T12:30:38.349Z,1003.02
2018-05-09T12:31:41.349Z,1003.11
2018-05-09T12:32:38.058Z,1003.10
2018-05-09T12:33:38.058Z,1003.07
2018-05-09T12:34:38.058Z,1003.12
2018-05-09T12:35:38.139Z,1003.07
2018-05-09T12:36:38.438Z,1003.08
2018-05-09T12:37:38.195Z,1003.09
2018-05-09T12:38:38.174Z,1003.05
2018-05-09T12:39:38.148Z,1002.99
2018-05-09T12:40:38.162Z,1002.98
2018-05-09T12:41:38.089Z,1002.95
2018-05-09T12:42:38.923Z,1002.90
2018-05-09T12:43:38.270Z,1002.97
2018-05-09T12:44:38.253Z,1003.00
2018-05-09T12:46:38.214Z,1003.03
2018-05-09T12:47:38.222Z,1003.05
2018-05-09T12:48:38.199Z,1003.03
2018-05-09T12:49:38.473Z,1002.99
2018-05-09T12:50:38.162Z,1003.01
2018-05-09T12:51:38.124Z,1003.00
2018-05-09T12:52:38.129Z,1003.00
2018-05-09T12:54:38.525Z,1002.89
2018-05-09T12:55:38.493Z,1002.87
2018-05-09T12:56:38.195Z,1002.86
2018-05-09T12:57:38.401Z,1002.83
2018-05-09T12:58:38.155Z,1002.78
2018-05-09T12:59:38.258Z,1002.74
2018-05-09T13:00:38.161Z,1002.81
2018-05-09T13:01:38.160Z,1002.86
2018-05-09T13:02:38.475Z,1002.88
2018-05-09T13:03:38.219Z,1002.93
2018-05-09T13:04:38.234Z,1002.82
2018-05-09T13:05:38.185Z,1002.88
2018-05-09T13:06:38.258Z,1002.90
2018-05-09T13:07:38.460Z,1002.90
2018-05-09T13:08:38.517Z,1002.58
2018-05-09T13:09:38.324Z,1002.72
2018-05-09T13:10:38.340Z,1002.90
2018-05-09T13:11:38.207Z,1002.86